Time;durP1;ratioP1;P1;durP2;ratioP2;P2;SDS_P1;SDS_P2;PMS_P1;PMS_P2;Temp;Humidity;BMP_temperature;BMP_pressure;BME280_temperature;BME280_humidity;BME280_pressure;Samples;Min_cycle;Max_cycle;Signal;HPM_P1;HPM_P2
2022/08/25 00:02:06;;;;;;;43.22;20.52;;;17.20;99.90;;;;;;5042684;28;20102;-79
2022/08/25 00:04:34;;;;;;;35.30;20.60;;;17.30;99.90;;;;;;5042389;28;20041;-77
2022/08/25 00:07:01;;;;;;;35.33;19.00;;;17.30;99.90;;;;;;5039681;28;20412;-79
2022/08/25 00:09:29;;;;;;;32.65;18.52;;;17.30;99.90;;;;;;5041188;28;20049;-79
2022/08/25 00:11:56;;;;;;;37.38;18.30;;;17.30;99.90;;;;;;5059351;28;20407;-79
2022/08/25 00:14:27;;;;;;;39.03;19.48;;;17.30;99.90;;;;;;5059314;28;20041;-79
2022/08/25 00:16:56;;;;;;;35.70;19.02;;;17.30;99.90;;;;;;5059339;28;20098;-79
2022/08/25 00:19:26;;;;;;;40.25;19.38;;;17.30;99.90;;;;;;5059756;28;20099;-79
2022/08/25 00:21:53;;;;;;;41.38;18.60;;;17.20;99.90;;;;;;5059688;28;20045;-78
2022/08/25 00:24:21;;;;;;;38.25;18.85;;;17.20;99.90;;;;;;5059304;28;20033;-79
2022/08/25 00:26:50;;;;;;;36.55;18.75;;;17.20;99.90;;;;;;5042282;28;20083;-79
2022/08/25 00:29:19;;;;;;;37.03;17.48;;;17.20;99.90;;;;;;5041703;28;20077;-79
2022/08/25 00:31:46;;;;;;;28.85;16.40;;;17.20;99.90;;;;;;5058950;28;20044;-79
2022/08/25 00:34:18;;;;;;;35.33;17.58;;;17.20;99.90;;;;;;5058743;28;20037;-79
2022/08/25 00:36:46;;;;;;;39.05;19.75;;;17.20;99.90;;;;;;5059375;28;20036;-79
2022/08/25 00:39:13;;;;;;;42.65;19.35;;;17.20;99.90;;;;;;5058936;28;20053;-79
2022/08/25 00:41:42;;;;;;;33.75;17.65;;;17.20;99.90;;;;;;5038534;28;20189;-78
2022/08/25 00:44:12;;;;;;;33.85;15.75;;;17.20;99.90;;;;;;5057468;28;20056;-79
2022/08/25 00:46:42;;;;;;;28.30;16.63;;;17.10;99.90;;;;;;5058902;28;20444;-79
2022/08/25 00:49:13;;;;;;;42.20;17.48;;;17.10;99.90;;;;;;5062077;28;20090;-78
2022/08/25 00:51:46;;;;;;;37.33;18.77;;;17.10;99.90;;;;;;5045649;28;20146;-77
2022/08/25 00:54:17;;;;;;;42.10;19.00;;;17.00;99.90;;;;;;5053146;28;20045;-79
2022/08/25 00:56:45;;;;;;;41.65;19.95;;;17.00;99.90;;;;;;5060583;28;20049;-78
2022/08/25 00:59:13;;;;;;;40.90;20.40;;;17.00;99.90;;;;;;5041602;28;20071;-79
2022/08/25 01:01:41;;;;;;;43.00;20.40;;;17.00;99.90;;;;;;5058791;28;20044;-79
2022/08/25 01:04:09;;;;;;;40.53;20.38;;;17.00;99.90;;;;;;5057345;28;20068;-78
2022/08/25 01:06:42;;;;;;;39.88;18.70;;;17.00;99.90;;;;;;5055336;28;20036;-78
2022/08/25 01:09:12;;;;;;;34.60;17.70;;;17.00;99.90;;;;;;5054889;28;20045;-78
2022/08/25 01:11:40;;;;;;;35.55;18.58;;;17.10;99.90;;;;;;5055579;28;20041;-78
2022/08/25 01:14:09;;;;;;;37.25;19.13;;;17.10;99.90;;;;;;5037871;28;20448;-79
2022/08/25 01:16:38;;;;;;;39.90;19.27;;;17.10;99.90;;;;;;5055640;28;20053;-78
2022/08/25 01:19:08;;;;;;;42.33;18.70;;;17.10;99.90;;;;;;5055493;28;20048;-78
2022/08/25 01:21:41;;;;;;;46.35;19.65;;;17.00;99.90;;;;;;5057154;28;20041;-80
2022/08/25 01:24:12;;;;;;;45.85;21.45;;;17.10;99.90;;;;;;5057785;28;20095;-79
2022/08/25 01:26:39;;;;;;;48.28;20.10;;;17.00;99.90;;;;;;5057902;28;20037;-79
2022/08/25 01:29:21;;;;;;;40.53;19.23;;;17.00;99.90;;;;;;5058822;28;20470;-79
2022/08/25 01:31:49;;;;;;;36.75;16.92;;;17.00;99.90;;;;;;5058149;28;20454;-79
2022/08/25 01:34:17;;;;;;;40.88;17.38;;;17.00;99.90;;;;;;5057460;28;20033;-79
2022/08/25 01:36:46;;;;;;;40.60;18.83;;;17.10;99.90;;;;;;5060286;28;20488;-79
2022/08/25 01:39:14;;;;;;;39.08;18.92;;;17.00;99.90;;;;;;5059792;28;20049;-78
2022/08/25 01:41:58;;;;;;;31.10;17.27;;;17.10;99.90;;;;;;5061794;28;20071;-79
2022/08/25 01:44:26;;;;;;;38.90;18.63;;;17.10;99.90;;;;;;5059485;28;20045;-79
2022/08/25 01:46:53;;;;;;;40.33;18.55;;;17.10;99.90;;;;;;5057922;28;20049;-79
2022/08/25 01:49:21;;;;;;;38.42;17.65;;;17.10;99.90;;;;;;5057788;28;20045;-78
2022/08/25 01:51:55;;;;;;;48.55;20.15;;;17.10;99.90;;;;;;5055195;28;20450;-79
2022/08/25 01:54:23;;;;;;;44.35;20.17;;;17.10;99.90;;;;;;5054692;28;20032;-78
2022/08/25 01:56:50;;;;;;;40.53;18.58;;;17.20;99.90;;;;;;5058257;28;20040;-78
2022/08/25 01:59:18;;;;;;;53.80;22.35;;;17.20;99.90;;;;;;5059262;28;20065;-78
2022/08/25 02:01:46;;;;;;;57.42;22.20;;;17.20;99.90;;;;;;5040812;28;20053;-78
2022/08/25 02:04:13;;;;;;;57.10;22.15;;;17.20;99.90;;;;;;5058993;28;20483;-78
2022/08/25 02:06:41;;;;;;;87.38;25.02;;;17.10;99.90;;;;;;5058406;28;20049;-77
2022/08/25 02:09:12;;;;;;;62.95;22.70;;;17.10;99.90;;;;;;5040811;28;20561;-78
2022/08/25 02:11:42;;;;;;;74.07;22.63;;;17.10;99.90;;;;;;5058920;28;20510;-78
2022/08/25 02:14:10;;;;;;;64.28;23.27;;;17.20;99.90;;;;;;5058034;28;20388;-78
2022/08/25 02:16:39;;;;;;;62.13;22.80;;;17.20;99.90;;;;;;5058796;28;20067;-78
2022/08/25 02:19:10;;;;;;;55.88;21.98;;;17.20;99.90;;;;;;5060119;28;20450;-78
2022/08/25 02:21:38;;;;;;;61.63;22.23;;;17.20;99.90;;;;;;5059549;28;20500;-78
2022/08/25 02:24:07;;;;;;;53.70;22.30;;;17.30;99.90;;;;;;5059114;28;20045;-78
2022/08/25 02:26:36;;;;;;;58.28;22.63;;;17.30;99.90;;;;;;5059324;28;20492;-79
2022/08/25 02:29:04;;;;;;;75.50;26.50;;;17.30;99.90;;;;;;5062024;28;20048;-79
2022/08/25 02:31:31;;;;;;;65.15;26.88;;;17.40;99.90;;;;;;5044380;28;20458;-79
2022/08/25 02:33:59;;;;;;;64.45;25.50;;;17.40;99.90;;;;;;5061184;28;20044;-79
2022/08/25 02:36:26;;;;;;;58.53;26.10;;;17.40;99.90;;;;;;5062428;28;20068;-79
2022/08/25 02:38:53;;;;;;;60.65;26.85;;;17.40;99.90;;;;;;5061018;28;20075;-77
2022/08/25 02:41:23;;;;;;;51.88;25.90;;;17.40;99.90;;;;;;5058811;28;20500;-79
2022/08/25 02:43:52;;;;;;;55.13;22.77;;;17.30;99.90;;;;;;5061283;28;20044;-79
2022/08/25 02:46:21;;;;;;;50.17;24.02;;;17.30;99.90;;;;;;5061599;28;20048;-79
2022/08/25 02:48:50;;;;;;;67.63;24.80;;;17.30;99.90;;;;;;5060937;28;20044;-79
2022/08/25 02:51:17;;;;;;;51.95;25.38;;;17.30;99.90;;;;;;5044045;28;20085;-78
2022/08/25 02:53:46;;;;;;;59.60;25.30;;;17.20;99.90;;;;;;5061296;28;20078;-79
2022/08/25 02:56:15;;;;;;;61.28;26.08;;;17.30;99.90;;;;;;5061414;28;20048;-79
2022/08/25 02:58:43;;;;;;;57.20;26.00;;;17.30;99.90;;;;;;5060571;28;20079;-79
2022/08/25 03:01:12;;;;;;;55.67;26.30;;;17.30;99.90;;;;;;5043252;28;20067;-78
2022/08/25 03:03:40;;;;;;;61.38;27.60;;;17.40;99.90;;;;;;5043524;28;20053;-78
2022/08/25 03:06:08;;;;;;;61.60;24.98;;;17.40;99.90;;;;;;5060137;28;20102;-78
2022/08/25 03:08:36;;;;;;;58.13;25.42;;;17.50;99.90;;;;;;5057532;28;20049;-79
2022/08/25 03:11:04;;;;;;;65.20;26.27;;;17.50;99.90;;;;;;5059930;28;20049;-79
2022/08/25 03:13:32;;;;;;;61.72;25.92;;;17.50;99.90;;;;;;5060828;28;20049;-79
2022/08/25 03:15:59;;;;;;;65.13;25.85;;;17.50;99.90;;;;;;5060463;28;20044;-79
2022/08/25 03:18:29;;;;;;;60.78;26.73;;;17.50;99.90;;;;;;5042450;28;20044;-78
2022/08/25 03:20:56;;;;;;;72.50;27.85;;;17.50;99.90;;;;;;5058447;28;20041;-78
2022/08/25 03:23:23;;;;;;;74.85;27.83;;;17.40;99.90;;;;;;5057980;28;20051;-78
2022/08/25 03:28:35;;;;;;;96.32;27.85;;;17.30;99.90;;;;;;5042510;28;20052;-79
2022/08/25 03:31:03;;;;;;;77.93;26.92;;;17.30;99.90;;;;;;5062168;28;20045;-79
2022/08/25 03:33:32;;;;;;;76.10;26.92;;;17.20;99.90;;;;;;5062152;28;20120;-79
2022/08/25 03:35:59;;;;;;;73.97;25.85;;;17.20;99.90;;;;;;5043639;28;20041;-79
2022/08/25 03:38:27;;;;;;;77.60;26.08;;;17.10;99.90;;;;;;5059205;28;20103;-74
2022/08/25 03:40:54;;;;;;;72.63;26.52;;;17.10;99.90;;;;;;5055011;28;20043;-74
2022/08/25 03:43:22;;;;;;;81.07;28.70;;;17.00;99.90;;;;;;5054469;28;20037;-74
2022/08/25 03:45:49;;;;;;;80.85;28.63;;;17.00;99.90;;;;;;5054801;28;20400;-74
2022/08/25 03:48:17;;;;;;;93.75;27.55;;;17.10;99.90;;;;;;5036786;28;20044;-74
2022/08/25 03:50:48;;;;;;;83.85;29.17;;;17.10;99.90;;;;;;5054339;28;20033;-74
2022/08/25 03:53:15;;;;;;;86.63;29.85;;;17.10;99.90;;;;;;5054250;28;20079;-74
2022/08/25 03:55:43;;;;;;;82.57;28.70;;;17.10;99.90;;;;;;5055027;28;20041;-74
2022/08/25 03:58:11;;;;;;;92.43;29.67;;;17.10;99.90;;;;;;5054804;28;20044;-74
2022/08/25 04:00:38;;;;;;;85.80;29.05;;;17.10;99.90;;;;;;5054741;28;20499;-74
2022/08/25 04:03:05;;;;;;;81.70;27.88;;;17.20;99.90;;;;;;5036344;28;20456;-74
2022/08/25 04:05:34;;;;;;;73.82;28.38;;;17.20;99.90;;;;;;5054672;28;20091;-74
2022/08/25 04:08:03;;;;;;;71.15;26.23;;;17.20;99.90;;;;;;5054312;28;20053;-73
2022/08/25 04:10:30;;;;;;;52.30;23.45;;;17.20;99.90;;;;;;5054324;28;20047;-77
2022/08/25 04:12:58;;;;;;;75.35;25.63;;;17.10;99.90;;;;;;5054490;28;20048;-74
2022/08/25 04:15:25;;;;;;;51.00;23.83;;;17.10;99.90;;;;;;5053980;28;20041;-74
2022/08/25 04:17:52;;;;;;;51.65;23.08;;;17.20;99.90;;;;;;5054181;28;20120;-75
2022/08/25 04:20:20;;;;;;;53.08;24.65;;;17.20;99.90;;;;;;5054281;28;20407;-75
2022/08/25 04:22:47;;;;;;;67.53;26.17;;;17.20;99.90;;;;;;5054143;28;20052;-75
2022/08/25 04:25:16;;;;;;;69.22;27.08;;;17.30;99.90;;;;;;5054013;28;20045;-75
2022/08/25 04:27:44;;;;;;;65.13;26.42;;;17.30;99.90;;;;;;5053924;28;20079;-74
2022/08/25 04:30:12;;;;;;;70.68;28.92;;;17.30;99.90;;;;;;5053765;28;20542;-74
2022/08/25 04:32:40;;;;;;;63.63;27.52;;;17.30;99.90;;;;;;5053817;28;20044;-74
2022/08/25 04:35:08;;;;;;;62.67;26.27;;;17.30;99.90;;;;;;5035802;28;20044;-74
2022/08/25 04:37:35;;;;;;;63.75;25.42;;;17.40;99.90;;;;;;5032215;28;20069;-75
2022/08/25 04:40:03;;;;;;;63.75;27.05;;;17.40;99.90;;;;;;5033848;28;20563;-74
2022/08/25 04:42:32;;;;;;;62.25;26.73;;;17.40;99.90;;;;;;5033502;28;20125;-75
2022/08/25 04:45:00;;;;;;;59.20;26.33;;;17.40;99.90;;;;;;5033434;28;20045;-74
2022/08/25 04:47:28;;;;;;;54.50;26.17;;;17.50;99.90;;;;;;5033814;28;20100;-74
2022/08/25 04:49:55;;;;;;;54.25;24.88;;;17.50;99.90;;;;;;5033481;28;20488;-74
2022/08/25 04:52:23;;;;;;;57.42;26.13;;;17.60;99.90;;;;;;5033562;28;20052;-74
2022/08/25 04:54:50;;;;;;;53.92;25.90;;;17.60;99.90;;;;;;5031871;28;20046;-73
2022/08/25 04:57:17;;;;;;;52.30;25.58;;;17.60;99.90;;;;;;5033576;28;20045;-74
2022/08/25 04:59:46;;;;;;;54.17;25.83;;;17.60;99.90;;;;;;5033093;28;20049;-73
2022/08/25 05:02:14;;;;;;;64.28;26.90;;;17.70;99.90;;;;;;5033446;28;20078;-74
2022/08/25 05:04:41;;;;;;;54.13;24.70;;;17.70;99.90;;;;;;5032783;28;20128;-74
2022/08/25 05:07:08;;;;;;;53.45;25.23;;;17.70;99.90;;;;;;5033361;28;20488;-75
2022/08/25 05:09:36;;;;;;;53.38;25.88;;;17.70;99.90;;;;;;5033065;28;20073;-74
2022/08/25 05:12:04;;;;;;;52.80;26.05;;;17.80;99.90;;;;;;5032023;28;20061;-74
2022/08/25 05:14:32;;;;;;;50.95;25.90;;;17.80;99.90;;;;;;5033216;28;20064;-74
2022/08/25 05:17:01;;;;;;;1186.03;217.05;;;17.80;99.90;;;;;;5032992;28;20064;-73
2022/08/25 05:19:29;;;;;;;63.15;26.88;;;17.80;99.90;;;;;;5032787;28;20049;-74
2022/08/25 05:21:56;;;;;;;75.63;29.38;;;17.80;99.90;;;;;;5033178;28;20041;-74
2022/08/25 05:24:23;;;;;;;67.53;29.33;;;17.80;99.90;;;;;;5032315;28;20055;-75
2022/08/25 05:26:50;;;;;;;178.13;43.10;;;17.90;99.90;;;;;;5031735;28;20038;-74
2022/08/25 05:29:18;;;;;;;64.75;27.75;;;17.90;99.90;;;;;;5033034;28;20041;-75
2022/08/25 05:31:45;;;;;;;67.10;28.15;;;18.00;99.90;;;;;;5032456;28;20041;-75
2022/08/25 05:34:14;;;;;;;59.17;28.02;;;18.00;99.90;;;;;;5032758;28;20515;-75
2022/08/25 05:36:42;;;;;;;64.50;28.42;;;18.00;99.90;;;;;;5031476;28;20090;-75
2022/08/25 05:39:09;;;;;;;56.92;25.92;;;18.10;99.90;;;;;;5050382;28;20049;-73
2022/08/25 05:41:37;;;;;;;64.05;27.67;;;18.20;99.90;;;;;;5052665;28;20447;-74
2022/08/25 05:44:04;;;;;;;80.95;29.70;;;18.20;99.90;;;;;;5034544;28;20049;-75
2022/08/25 05:46:32;;;;;;;65.78;31.40;;;18.30;99.90;;;;;;5052507;28;20423;-74
2022/08/25 05:48:59;;;;;;;63.90;29.52;;;18.50;99.90;;;;;;5034428;28;20130;-75
2022/08/25 05:51:28;;;;;;;59.55;29.35;;;18.60;99.90;;;;;;5052521;28;20052;-74
2022/08/25 05:53:56;;;;;;;61.25;27.67;;;18.60;99.90;;;;;;5052457;28;20048;-74
2022/08/25 05:56:23;;;;;;;56.28;27.65;;;18.80;99.90;;;;;;5052580;28;20442;-74
2022/08/25 05:58:50;;;;;;;60.60;29.55;;;18.90;99.90;;;;;;5034358;28;20041;-74
2022/08/25 06:04:11;;;;;;;60.85;29.67;;;19.10;99.90;;;;;;5051889;28;20033;-74
2022/08/25 06:06:40;;;;;;;56.80;29.02;;;19.10;99.90;;;;;;5052218;28;20060;-74
2022/08/25 06:09:08;;;;;;;58.17;31.27;;;19.20;99.90;;;;;;5052506;28;20037;-73
2022/08/25 06:11:38;;;;;;;58.08;32.00;;;19.30;99.90;;;;;;5033752;28;20056;-75
2022/08/25 06:14:06;;;;;;;62.45;37.65;;;19.30;99.90;;;;;;5052159;28;20116;-75
2022/08/25 06:16:33;;;;;;;63.65;35.65;;;19.40;99.90;;;;;;5052166;28;20041;-74
2022/08/25 06:19:01;;;;;;;60.85;35.83;;;19.50;99.90;;;;;;5052280;28;20045;-76
2022/08/25 06:21:28;;;;;;;56.85;36.20;;;19.60;99.90;;;;;;5052288;28;20041;-74
2022/08/25 06:23:57;;;;;;;63.97;36.75;;;19.80;99.90;;;;;;5051953;28;20048;-73
2022/08/25 06:26:25;;;;;;;57.42;35.35;;;19.90;99.90;;;;;;5051935;28;20044;-76
2022/08/25 06:28:53;;;;;;;61.47;35.30;;;20.10;99.90;;;;;;5052564;28;20083;-75
2022/08/25 06:31:22;;;;;;;60.05;34.88;;;20.30;99.90;;;;;;5052758;28;20049;-75
2022/08/25 06:33:50;;;;;;;55.53;33.40;;;20.60;99.90;;;;;;5033962;28;20049;-75
2022/08/25 06:36:19;;;;;;;60.05;34.47;;;20.80;99.90;;;;;;5034625;28;20507;-75
2022/08/25 06:38:47;;;;;;;52.55;31.77;;;21.10;99.90;;;;;;5052419;28;20443;-75
2022/08/25 06:41:16;;;;;;;58.53;34.88;;;21.50;99.90;;;;;;5052030;28;20087;-74
2022/08/25 06:43:43;;;;;;;49.83;34.28;;;21.50;99.90;;;;;;5053630;28;20116;-76
2022/08/25 06:46:12;;;;;;;50.60;33.33;;;21.40;99.90;;;;;;5037682;28;20404;-75
2022/08/25 06:48:39;;;;;;;50.90;31.88;;;21.00;99.90;;;;;;5054469;28;20041;-75
2022/08/25 06:51:08;;;;;;;42.75;29.10;;;21.00;99.90;;;;;;5053817;28;20049;-76
2022/08/25 06:53:36;;;;;;;44.85;29.23;;;21.10;99.90;;;;;;5053024;28;20071;-77
2022/08/25 06:56:05;;;;;;;41.92;29.40;;;21.00;99.90;;;;;;5054466;28;20041;-77
2022/08/25 06:58:34;;;;;;;41.50;28.23;;;21.00;99.90;;;;;;5055365;28;20094;-75
2022/08/25 07:01:08;;;;;;;46.15;30.00;;;21.00;99.90;;;;;;5055956;28;20492;-76
2022/08/25 07:03:35;;;;;;;45.08;30.65;;;21.20;99.90;;;;;;5055526;28;20349;-76
2022/08/25 07:06:03;;;;;;;44.38;30.08;;;21.10;99.90;;;;;;5055882;28;20041;-75
2022/08/25 07:08:30;;;;;;;41.10;30.27;;;21.20;99.90;;;;;;5057052;28;20083;-75
2022/08/25 07:10:58;;;;;;;50.60;37.33;;;21.20;99.90;;;;;;5062016;28;20558;-75
2022/08/25 07:13:25;;;;;;;40.95;28.20;;;21.40;99.90;;;;;;5050425;28;20053;-75
2022/08/25 07:15:55;;;;;;;39.90;26.00;;;21.80;99.90;;;;;;5067224;28;20046;-75
2022/08/25 07:18:23;;;;;;;39.78;26.13;;;22.10;99.90;;;;;;5069157;28;20122;-74
2022/08/25 07:20:50;;;;;;;41.05;26.17;;;22.00;99.90;;;;;;5064810;28;20119;-74
2022/08/25 07:23:18;;;;;;;39.55;25.98;;;22.30;99.90;;;;;;5057728;28;20048;-75
2022/08/25 07:25:46;;;;;;;33.88;23.90;;;22.50;99.90;;;;;;5055757;28;20041;-74
2022/08/25 07:28:13;;;;;;;39.15;24.17;;;22.80;99.90;;;;;;5055471;28;20492;-74
2022/08/25 07:30:41;;;;;;;34.13;25.17;;;23.10;99.90;;;;;;5055374;28;20075;-76
2022/08/25 07:33:10;;;;;;;32.55;23.13;;;23.20;99.90;;;;;;5055245;28;20048;-75
2022/08/25 07:35:37;;;;;;;34.88;23.42;;;23.40;99.90;;;;;;5079067;28;20097;-74
2022/08/25 07:38:06;;;;;;;32.05;23.65;;;23.60;99.90;;;;;;5060167;28;20156;-74
2022/08/25 07:40:36;;;;;;;34.30;23.75;;;23.70;99.90;;;;;;5040178;28;20052;-74
2022/08/25 07:43:07;;;;;;;28.55;22.05;;;23.60;99.90;;;;;;5049376;28;20099;-73
2022/08/25 07:45:37;;;;;;;30.02;23.23;;;23.60;99.90;;;;;;5043484;28;20053;-73
2022/08/25 07:48:07;;;;;;;29.00;21.67;;;23.70;99.90;;;;;;5059778;28;20092;-74
2022/08/25 07:50:40;;;;;;;26.60;20.42;;;24.00;99.90;;;;;;5059175;28;20055;-73
2022/08/25 07:53:09;;;;;;;24.83;19.88;;;24.40;99.90;;;;;;5057884;28;20120;-74
2022/08/25 07:55:36;;;;;;;28.80;21.02;;;24.50;1.00;;;;;;5056651;28;20080;-74
2022/08/25 07:58:04;;;;;;;26.63;20.70;;;24.40;1.00;;;;;;5054610;28;20037;-74
2022/08/25 08:00:35;;;;;;;25.70;20.73;;;24.20;1.00;;;;;;5054459;28;20041;-75
2022/08/25 08:03:04;;;;;;;25.00;19.80;;;23.90;1.00;;;;;;5054346;28;20052;-74
2022/08/25 08:05:32;;;;;;;27.25;21.05;;;23.50;99.90;;;;;;5054586;28;20406;-74
2022/08/25 08:08:02;;;;;;;25.80;21.17;;;23.60;99.90;;;;;;5053382;28;20091;-74
2022/08/25 08:10:29;;;;;;;26.73;21.00;;;23.60;99.90;;;;;;5054384;28;20051;-74
2022/08/25 08:12:57;;;;;;;25.48;19.20;;;24.00;1.00;;;;;;5054184;28;20500;-73
2022/08/25 08:15:24;;;;;;;26.73;19.02;;;24.30;1.00;;;;;;5036410;28;20044;-74
2022/08/25 08:17:52;;;;;;;25.83;20.15;;;24.50;1.00;;;;;;5054455;28;20060;-74
2022/08/25 08:20:19;;;;;;;21.92;18.75;;;24.60;1.00;;;;;;5036394;28;20049;-75
2022/08/25 08:22:46;;;;;;;22.08;18.67;;;24.90;99.90;;;;;;5052910;28;20103;-75
2022/08/25 08:25:15;;;;;;;20.60;18.23;;;25.00;99.90;;;;;;5053977;28;20041;-75
2022/08/25 08:27:44;;;;;;;21.45;18.55;;;25.00;1.00;;;;;;5054649;28;20041;-75
2022/08/25 08:30:13;;;;;;;23.13;18.63;;;25.10;99.90;;;;;;5036222;28;20076;-76
2022/08/25 08:32:42;;;;;;;23.27;18.08;;;25.30;1.00;;;;;;5054295;28;20052;-75
2022/08/25 08:35:10;;;;;;;23.23;20.77;;;25.10;1.00;;;;;;5053984;28;20051;-75
2022/08/25 08:37:40;;;;;;;20.92;18.67;;;25.40;99.90;;;;;;5054016;28;20105;-75
2022/08/25 08:40:10;;;;;;;18.85;16.85;;;25.80;99.90;;;;;;5054280;28;20056;-76
2022/08/25 08:42:53;;;;;;;21.90;18.85;;;26.40;99.90;;;;;;5020244;28;20124;-75
2022/08/25 08:45:34;;;;;;;19.88;17.63;;;26.60;1.00;;;;;;5051280;28;20085;-74
2022/08/25 08:48:22;;;;;;;21.17;18.65;;;26.50;99.90;;;;;;5035975;28;20091;-75
2022/08/25 08:51:01;;;;;;;22.05;19.45;;;26.70;99.90;;;;;;5053459;28;20068;-74
2022/08/25 08:53:40;;;;;;;23.15;20.63;;;27.10;1.00;;;;;;5053097;28;20045;-74
2022/08/25 08:56:12;;;;;;;26.48;23.08;;;26.80;1.00;;;;;;5052531;28;20053;-74
2022/08/25 08:58:44;;;;;;;26.40;21.17;;;26.60;99.90;;;;;;5053695;28;20045;-74
2022/08/25 09:01:17;;;;;;;27.02;22.45;;;26.60;1.00;;;;;;5053932;28;20118;-74
2022/08/25 09:03:50;;;;;;;26.70;22.65;;;26.40;99.90;;;;;;5053118;28;20444;-75
2022/08/25 09:06:24;;;;;;;26.75;22.73;;;26.40;99.90;;;;;;5052606;28;20041;-74
2022/08/25 09:08:54;;;;;;;29.63;25.02;;;26.30;99.90;;;;;;5054742;28;20364;-74
2022/08/25 09:11:29;;;;;;;29.30;23.45;;;26.40;99.90;;;;;;5054154;28;20045;-75
2022/08/25 09:14:16;;;;;;;28.83;23.85;;;26.50;1.00;;;;;;5034072;28;20539;-74
2022/08/25 09:16:55;;;;;;;28.15;24.88;;;26.60;1.00;;;;;;5033311;28;20511;-75
2022/08/25 09:20:03;;;;;;;26.98;22.75;;;26.70;99.90;;;;;;5033587;28;20042;-75
2022/08/25 09:22:41;;;;;;;25.15;22.05;;;26.70;99.90;;;;;;5015295;28;20045;-75
2022/08/25 09:25:17;;;;;;;26.33;23.45;;;27.00;99.90;;;;;;5028394;28;20118;-75
2022/08/25 09:27:52;;;;;;;27.88;23.95;;;27.20;99.90;;;;;;5053108;28;20044;-74
2022/08/25 09:30:22;;;;;;;;;;;27.30;99.90;;;;;;5053779;28;20119;-78
2022/08/25 09:32:52;;;;;;;29.25;23.48;;;27.20;99.90;;;;;;5055075;28;19968;-78
2022/08/25 09:35:24;;;;;;;27.63;23.58;;;27.40;99.90;;;;;;5043340;28;20041;-79
2022/08/25 09:38:00;;;;;;;27.60;24.00;;;27.40;59.50;;;;;;5054258;28;20430;-77
2022/08/25 09:40:28;;;;;;;;;;;27.70;16.50;;;;;;5053467;28;20052;-77
2022/08/25 09:42:58;;;;;;;32.40;25.88;;;27.70;39.40;;;;;;5052057;28;19920;-77
2022/08/25 09:45:41;;;;;;;26.17;23.38;;;27.70;67.70;;;;;;5053438;28;20132;-78
2022/08/25 09:48:23;;;;;;;27.23;23.52;;;28.00;1.50;;;;;;5052742;28;20136;-77
2022/08/25 09:50:53;;;;;;;28.70;23.83;;;28.10;1.00;;;;;;5033308;28;20501;-78
2022/08/25 09:53:21;;;;;;;25.83;23.08;;;28.20;1.00;;;;;;5036299;28;20060;-77
2022/08/25 09:55:56;;;;;;;27.88;24.60;;;28.20;1.00;;;;;;5052625;28;20096;-77
2022/08/25 09:58:24;;;;;;;;;;;28.00;1.00;;;;;;5034692;28;20148;-77
2022/08/25 10:01:15;;;;;;;29.92;23.73;;;27.90;1.00;;;;;;5052395;28;19924;-77
2022/08/25 10:04:00;;;;;;;30.48;27.00;;;27.60;1.00;;;;;;5052179;28;20040;-77
2022/08/25 10:06:33;;;;;;;32.90;26.42;;;27.40;17.30;;;;;;5051591;28;20124;-77
2022/08/25 10:09:05;;;;;;;30.85;25.38;;;27.60;41.50;;;;;;5052204;28;20060;-76
2022/08/25 10:11:37;;;;;;;31.85;28.38;;;27.70;51.50;;;;;;5052462;28;20064;-77
2022/08/25 10:14:14;;;;;;;33.22;26.50;;;27.90;1.00;;;;;;5051972;28;20064;-77
2022/08/25 10:16:45;;;;;;;32.33;26.00;;;28.10;1.00;;;;;;5053143;28;20037;-77
2022/08/25 10:19:22;;;;;;;32.90;26.63;;;28.40;1.00;;;;;;5056235;28;20110;-77
2022/08/25 10:22:07;;;;;;;31.25;26.35;;;28.00;1.00;;;;;;5056220;28;20052;-77
2022/08/25 10:24:36;;;;;;;35.10;29.70;;;27.90;14.00;;;;;;5055890;28;20119;-77
2022/08/25 10:27:14;;;;;;;35.38;30.02;;;28.00;99.90;;;;;;5054098;28;20415;-76
2022/08/25 10:30:03;;;;;;;36.60;29.52;;;27.80;10.10;;;;;;5055607;28;20496;-77
2022/08/25 10:32:50;;;;;;;36.55;30.15;;;27.60;13.00;;;;;;5037076;28;20052;-77
2022/08/25 10:35:20;;;;;;;38.22;32.20;;;27.80;1.00;;;;;;5047167;28;20053;-77
2022/08/25 10:38:03;;;;;;;39.80;30.80;;;27.90;1.00;;;;;;5034793;28;20393;-77
2022/08/25 10:40:40;;;;;;;36.15;27.90;;;28.30;1.00;;;;;;5037121;28;20049;-78
2022/08/25 10:43:18;;;;;;;34.92;29.85;;;28.60;1.00;;;;;;5037119;28;20037;-78
2022/08/25 10:45:50;;;;;;;37.50;28.80;;;28.30;1.00;;;;;;5055806;28;20045;-77
2022/08/25 10:48:43;;;;;;;41.08;33.08;;;28.30;1.00;;;;;;5057575;28;20041;-78
2022/08/25 10:51:26;;;;;;;36.15;29.48;;;28.60;1.00;;;;;;5047696;28;20147;-77
2022/08/25 10:54:04;;;;;;;40.08;30.48;;;28.40;1.00;;;;;;5038995;28;20045;-78
2022/08/25 10:56:34;;;;;;;36.30;30.85;;;28.70;1.00;;;;;;5056931;28;20051;-77
2022/08/25 10:59:30;;;;;;;36.28;29.77;;;28.50;1.00;;;;;;5044895;28;20075;-78
2022/08/25 11:02:15;;;;;;;36.10;30.00;;;27.60;1.00;;;;;;5038870;28;20041;-78
2022/08/25 11:04:48;;;;;;;36.47;28.77;;;27.10;1.00;;;;;;5037139;28;20552;-78
2022/08/25 11:07:26;;;;;;;34.75;30.10;;;27.00;7.90;;;;;;5027240;28;20033;-78
2022/08/25 11:10:05;;;;;;;42.58;33.83;;;26.70;99.90;;;;;;5037382;28;20075;-78
2022/08/25 11:12:38;;;;;;;45.35;39.45;;;26.90;99.90;;;;;;5037937;28;20041;-78
2022/08/25 11:15:11;;;;;;;45.83;36.17;;;27.20;51.90;;;;;;5037186;28;20076;-78
2022/08/25 11:17:43;;;;;;;42.03;32.28;;;27.40;22.60;;;;;;5037795;28;20038;-78
2022/08/25 11:20:17;;;;;;;35.58;31.48;;;27.60;1.00;;;;;;5038048;28;20461;-78
2022/08/25 11:22:50;;;;;;;44.70;36.53;;;27.80;1.00;;;;;;5044835;28;20042;-78
2022/08/25 11:25:24;;;;;;;40.92;33.88;;;28.00;1.00;;;;;;5045066;28;20079;-78
2022/08/25 11:27:57;;;;;;;34.33;29.52;;;28.00;1.00;;;;;;5045908;28;20041;-78
2022/08/25 11:30:25;;;;;;;34.42;28.88;;;28.10;1.00;;;;;;5038281;28;20072;-78
2022/08/25 11:32:54;;;;;;;35.75;28.95;;;27.90;1.00;;;;;;5038572;28;20038;-79
2022/08/25 11:35:30;;;;;;;49.15;38.30;;;27.60;1.00;;;;;;5039439;28;20147;-79
2022/08/25 11:38:03;;;;;;;;;;;27.60;1.00;;;;;;5047224;28;20053;-78
2022/08/25 11:40:44;;;;;;;39.33;30.98;;;27.70;1.00;;;;;;5059279;28;19967;-80
2022/08/25 11:43:28;;;;;;;33.42;28.40;;;27.40;1.00;;;;;;5056219;28;20047;-78
2022/08/25 11:46:07;;;;;;;42.08;31.40;;;27.50;1.00;;;;;;5055489;28;20045;-76
2022/08/25 11:48:44;;;;;;;35.90;30.92;;;27.60;1.00;;;;;;5057003;28;20068;-79
2022/08/25 11:51:30;;;;;;;36.97;29.52;;;27.90;1.00;;;;;;5056508;28;20037;-79
2022/08/25 11:54:07;;;;;;;;;;;27.90;1.00;;;;;;5055662;28;20407;-78
2022/08/25 11:56:37;;;;;;;35.60;26.95;;;27.90;1.00;;;;;;5057077;28;19921;-79
2022/08/25 11:59:05;;;;;;;41.22;31.33;;;27.80;1.00;;;;;;5056399;28;20049;-78
2022/08/25 12:02:09;;;;;;;37.70;30.73;;;27.60;1.00;;;;;;5056177;28;20404;-78
2022/08/25 12:04:40;;;;;;;36.42;29.88;;;27.50;1.00;;;;;;5056517;28;20515;-79
2022/08/25 12:07:25;;;;;;;40.65;32.17;;;27.60;1.00;;;;;;5056247;28;20052;-78
2022/08/25 12:10:13;;;;;;;31.90;28.50;;;27.60;1.00;;;;;;5056638;28;20101;-78
2022/08/25 12:13:00;;;;;;;33.72;26.63;;;27.60;1.00;;;;;;5057589;28;20459;-78
2022/08/25 12:15:34;;;;;;;35.80;28.85;;;27.50;1.00;;;;;;5039517;28;20128;-79
2022/08/25 12:18:11;;;;;;;32.67;26.20;;;27.50;1.00;;;;;;5056668;28;20418;-79
2022/08/25 12:21:10;;;;;;;37.72;26.10;;;27.50;1.00;;;;;;5058666;28;20116;-78
2022/08/25 12:23:41;;;;;;;37.90;28.63;;;27.50;1.00;;;;;;5055195;28;20045;-78
2022/08/25 12:26:17;;;;;;;34.60;29.67;;;27.50;1.00;;;;;;5056669;28;20120;-78
2022/08/25 12:29:04;;;;;;;39.70;28.73;;;27.60;1.00;;;;;;5056636;28;20465;-78
2022/08/25 12:31:54;;;;;;;36.40;26.95;;;27.60;1.00;;;;;;5054883;28;20385;-77
2022/08/25 12:34:47;;;;;;;34.15;26.15;;;27.60;1.00;;;;;;5055288;28;20118;-79
2022/08/25 12:37:17;;;;;;;32.80;24.02;;;27.70;1.00;;;;;;5056793;28;20044;-79
2022/08/25 12:39:56;;;;;;;35.08;25.77;;;27.90;1.00;;;;;;5054707;28;20041;-78
2022/08/25 12:42:31;;;;;;;35.15;26.60;;;28.30;1.00;;;;;;5048310;28;20041;-78
2022/08/25 12:45:32;;;;;;;33.53;24.70;;;28.40;1.00;;;;;;5056394;28;20132;-78
2022/08/25 12:48:33;;;;;;;36.58;25.83;;;28.50;1.00;;;;;;5013250;28;20495;-78
2022/08/25 12:51:03;;;;;;;37.03;28.25;;;28.60;1.00;;;;;;5056208;28;20045;-79
2022/08/25 12:53:35;;;;;;;38.33;29.73;;;28.90;14.00;;;;;;5054372;28;20053;-78
2022/08/25 12:56:07;;;;;;;35.00;28.20;;;29.10;50.50;;;;;;5056041;28;20492;-79
2022/08/25 12:58:46;;;;;;;36.67;27.30;;;29.00;99.90;;;;;;5056646;28;20043;-79